createdAt,value
2019-01-18T00:01:01.403Z,98288.39
2019-01-18T00:03:28.585Z,98283.34
2019-01-18T00:05:55.763Z,98281.27
2019-01-18T00:08:22.782Z,98282.05
2019-01-18T00:10:49.964Z,98289.36
2019-01-18T00:13:17.667Z,98282.48
2019-01-18T00:15:44.793Z,98295.23
2019-01-18T00:18:12.447Z,98300.98
2019-01-18T00:20:39.708Z,98303.42
2019-01-18T00:23:06.836Z,98307.77
2019-01-18T00:25:33.899Z,98337.30
2019-01-18T00:28:00.904Z,98312.62
2019-01-18T00:30:27.598Z,98318.58
2019-01-18T00:32:54.591Z,98323.05
2019-01-18T00:35:22.411Z,98325.43
2019-01-18T00:37:50.179Z,98345.24
2019-01-18T00:40:17.829Z,98357.15
2019-01-18T00:42:44.609Z,98364.92
2019-01-18T00:45:13.242Z,98353.32
2019-01-18T00:47:40.900Z,98364.88
2019-01-18T00:50:08.669Z,98374.27
2019-01-18T00:52:35.733Z,98367.96
2019-01-18T00:55:03.398Z,98379.59
2019-01-18T00:57:30.492Z,98377.01
2019-01-18T00:59:58.213Z,98378.05
2019-01-18T01:02:25.134Z,98380.05
2019-01-18T01:04:52.276Z,98376.42
2019-01-18T01:07:18.854Z,98378.63
2019-01-18T01:09:46.595Z,98393.55
2019-01-18T01:12:15.284Z,98402.73
2019-01-18T01:14:42.958Z,98412.28
2019-01-18T01:17:10.104Z,98399.48
2019-01-18T01:19:37.756Z,98408.03
2019-01-18T01:22:05.532Z,98407.98
2019-01-18T01:24:32.645Z,98426.89
2019-01-18T01:26:59.629Z,98429.20
2019-01-18T01:29:26.620Z,98429.52
2019-01-18T01:31:53.683Z,98438.11
2019-01-18T01:34:20.735Z,98449.09
2019-01-18T01:36:48.428Z,98449.35
2019-01-18T01:39:16.280Z,98457.42
2019-01-18T01:41:43.281Z,98453.80
2019-01-18T01:44:11.017Z,98470.52
2019-01-18T01:46:38.770Z,98441.70
2019-01-18T01:49:05.821Z,98426.13
2019-01-18T01:51:33.587Z,98432.27
2019-01-18T01:54:01.337Z,98434.34
2019-01-18T01:56:29.021Z,98437.08
2019-01-18T01:58:55.897Z,98433.68
2019-01-18T02:01:22.921Z,98432.13
2019-01-18T02:03:49.949Z,98437.42
2019-01-18T02:06:17.596Z,98447.84
2019-01-18T02:08:44.663Z,98457.95
2019-01-18T02:11:12.311Z,98467.91
2019-01-18T02:13:40.195Z,98469.47
2019-01-18T02:16:07.136Z,98484.81
2019-01-18T02:18:34.117Z,98486.46
2019-01-18T02:21:01.183Z,98486.22
2019-01-18T02:23:28.247Z,98490.92
2019-01-18T02:25:55.925Z,98494.08
2019-01-18T02:28:23.699Z,98494.66
2019-01-18T02:30:50.707Z,98492.77
2019-01-18T02:33:17.770Z,98498.38
2019-01-18T02:35:44.834Z,98497.39
2019-01-18T02:38:12.523Z,98500.20
2019-01-18T02:40:40.692Z,98501.28
2019-01-18T02:43:08.352Z,98511.80
2019-01-18T02:45:36.062Z,98504.17
2019-01-18T02:48:03.144Z,98511.19
2019-01-18T02:50:30.212Z,98516.08
2019-01-18T02:52:57.225Z,98518.00
2019-01-18T02:55:29.011Z,98531.48
2019-01-18T02:57:54.319Z,98533.47
2019-01-18T03:00:21.374Z,98528.28
2019-01-18T03:02:49.146Z,98536.55
2019-01-18T03:05:16.141Z,98538.45
2019-01-18T03:07:42.748Z,98536.73
2019-01-18T03:10:10.477Z,98540.28
2019-01-18T03:12:37.460Z,98534.07
2019-01-18T03:15:04.547Z,98527.11
2019-01-18T03:17:31.987Z,98525.30
2019-01-18T03:19:59.095Z,98535.88
2019-01-18T03:22:25.921Z,98532.80
2019-01-18T03:24:53.777Z,98539.59
2019-01-18T03:27:21.470Z,98542.38
2019-01-18T03:29:49.230Z,98540.23
2019-01-18T03:32:16.344Z,98540.88
2019-01-18T03:34:43.372Z,98553.95
2019-01-18T03:37:10.496Z,98546.52
2019-01-18T03:39:38.232Z,98553.91
2019-01-18T03:42:05.232Z,98550.61
2019-01-18T03:44:32.396Z,98561.34
2019-01-18T03:47:00.082Z,98561.51
2019-01-18T03:49:27.598Z,98566.89
2019-01-18T03:51:55.420Z,98571.00
2019-01-18T03:54:23.093Z,98572.05
2019-01-18T03:56:50.856Z,98582.50
2019-01-18T03:59:17.941Z,98580.77
2019-01-18T04:01:44.989Z,98590.37
2019-01-18T04:04:11.993Z,98595.12
2019-01-18T04:06:39.737Z,98594.72
2019-01-18T04:09:07.504Z,98608.06
2019-01-18T04:11:35.176Z,98604.83
2019-01-18T04:14:02.276Z,98622.10
2019-01-18T04:16:29.992Z,98601.55
2019-01-18T04:18:57.637Z,98600.52
2019-01-18T04:21:24.816Z,98628.52
2019-01-18T04:23:52.573Z,98626.44
2019-01-18T04:26:20.225Z,98631.02
2019-01-18T04:28:47.638Z,98633.90
2019-01-18T04:31:15.364Z,98632.30
2019-01-18T04:33:43.009Z,98636.48
2019-01-18T04:36:10.115Z,98630.52
2019-01-18T04:38:36.892Z,98639.08
2019-01-18T04:41:03.899Z,98643.95
2019-01-18T04:43:30.942Z,98649.58
2019-01-18T04:45:58.673Z,98650.20
2019-01-18T04:48:25.660Z,98651.96
2019-01-18T04:50:53.487Z,98657.52
2019-01-18T04:53:21.240Z,98656.45
2019-01-18T04:55:47.793Z,98664.16
2019-01-18T04:58:15.449Z,98661.73
2019-01-18T05:00:42.446Z,98665.18
2019-01-18T05:03:09.561Z,98673.39
2019-01-18T05:05:36.656Z,98664.48
2019-01-18T05:08:04.333Z,98679.64
2019-01-18T05:10:32.007Z,98678.70
2019-01-18T05:12:59.063Z,98679.02
2019-01-18T05:15:26.723Z,98690.91
2019-01-18T05:17:53.867Z,98688.08
2019-01-18T05:20:21.537Z,98683.64
2019-01-18T05:22:48.553Z,98693.42
2019-01-18T05:25:16.226Z,98694.86
2019-01-18T05:27:43.908Z,98698.19
2019-01-18T05:30:11.680Z,98696.27
2019-01-18T05:32:38.768Z,98686.42
2019-01-18T05:35:06.477Z,98691.54
2019-01-18T05:37:33.481Z,98693.30
2019-01-18T05:40:01.178Z,98699.84
2019-01-18T05:42:28.149Z,98716.41
2019-01-18T05:44:55.913Z,98716.74
2019-01-18T05:47:23.022Z,98730.88
2019-01-18T05:49:50.053Z,98736.83
2019-01-18T05:52:17.177Z,98738.93
2019-01-18T05:54:44.908Z,98743.56
2019-01-18T05:57:11.948Z,98745.59
2019-01-18T05:59:39.010Z,98755.30
2019-01-18T06:02:06.185Z,98749.39
2019-01-18T06:04:32.838Z,98749.33
2019-01-18T06:07:02.678Z,98760.00
2019-01-18T06:09:29.473Z,98759.77
2019-01-18T06:11:56.141Z,98754.57
2019-01-18T06:14:23.429Z,98761.00
2019-01-18T06:16:50.107Z,98756.24
2019-01-18T06:19:18.559Z,98771.09
2019-01-18T06:21:45.513Z,98767.76
2019-01-18T06:24:15.735Z,98775.10
2019-01-18T06:26:43.242Z,98779.53
2019-01-18T06:29:18.852Z,98782.91
2019-01-18T06:31:46.045Z,98795.22
2019-01-18T06:34:12.691Z,98802.69
2019-01-18T06:36:39.774Z,98801.47
2019-01-18T06:39:06.933Z,98809.66
2019-01-18T06:41:33.525Z,98811.17
2019-01-18T06:44:00.552Z,98814.04
2019-01-18T06:46:28.391Z,98815.49
2019-01-18T06:48:55.021Z,98824.13
2019-01-18T06:51:22.100Z,98828.91
2019-01-18T06:53:48.730Z,98834.52
2019-01-18T06:56:15.711Z,98844.28
2019-01-18T06:58:42.286Z,98847.95
2019-01-18T07:01:10.126Z,98856.55
2019-01-18T07:03:36.761Z,98861.62
2019-01-18T07:06:03.900Z,98871.92
2019-01-18T07:08:30.951Z,98879.77
2019-01-18T07:10:58.000Z,98871.40
2019-01-18T07:13:24.672Z,98894.97
2019-01-18T07:15:51.273Z,98891.23
2019-01-18T07:18:17.871Z,98896.12
2019-01-18T07:20:44.940Z,98906.13
2019-01-18T07:23:11.999Z,98912.48
2019-01-18T07:25:39.051Z,98914.19
2019-01-18T07:28:05.759Z,98921.80
2019-01-18T07:30:32.849Z,98921.50
2019-01-18T07:33:00.429Z,98927.53
2019-01-18T07:35:27.143Z,98931.28
2019-01-18T07:37:54.208Z,98932.78
2019-01-18T07:40:20.847Z,98936.12
2019-01-18T07:42:47.488Z,98937.77
2019-01-18T07:45:15.192Z,98941.39
2019-01-18T07:47:42.236Z,98956.33
2019-01-18T07:50:08.904Z,98943.45
2019-01-18T07:52:35.972Z,98950.59
2019-01-18T07:55:03.429Z,98960.17
2019-01-18T07:57:30.371Z,98965.03
2019-01-18T07:59:58.024Z,98966.15
2019-01-18T08:02:25.133Z,98964.86
2019-01-18T08:04:52.138Z,98972.87
2019-01-18T08:07:19.544Z,98968.80
2019-01-18T08:09:46.225Z,98971.13
2019-01-18T08:12:13.336Z,98979.27
2019-01-18T08:14:40.434Z,98991.86
2019-01-18T08:17:08.010Z,98982.50
2019-01-18T08:19:35.146Z,98994.44
2019-01-18T08:22:02.242Z,98997.75
2019-01-18T08:24:29.364Z,99012.69
2019-01-18T08:26:56.029Z,99017.73
2019-01-18T08:29:23.612Z,99017.82
2019-01-18T08:31:50.268Z,99024.22
2019-01-18T08:34:16.879Z,99032.92
2019-01-18T08:36:43.990Z,99047.48
2019-01-18T08:39:10.609Z,99045.12
2019-01-18T08:41:37.644Z,99042.80
2019-01-18T08:44:04.318Z,99050.63
2019-01-18T08:46:31.407Z,99053.34
2019-01-18T08:48:58.555Z,99052.27
2019-01-18T08:51:25.308Z,99057.61
2019-01-18T08:53:52.303Z,99072.33
2019-01-18T08:56:19.024Z,99075.81
2019-01-18T08:58:46.213Z,99075.39
2019-01-18T09:01:14.140Z,99076.22
2019-01-18T09:03:40.826Z,99087.88
2019-01-18T09:06:07.585Z,99090.50
2019-01-18T09:08:34.693Z,99100.91
2019-01-18T09:11:01.737Z,99105.12
2019-01-18T09:13:28.896Z,99105.45
2019-01-18T09:15:55.620Z,99103.94
2019-01-18T09:18:22.679Z,99114.69
2019-01-18T09:20:49.911Z,99113.52
2019-01-18T09:23:16.571Z,99111.00
2019-01-18T09:25:43.276Z,99116.56
2019-01-18T09:28:10.372Z,99119.38
2019-01-18T09:30:37.214Z,99125.00
2019-01-18T09:33:04.309Z,99138.81
2019-01-18T09:35:32.106Z,99132.72
2019-01-18T09:37:59.174Z,99143.32
2019-01-18T09:40:25.783Z,99137.66
2019-01-18T09:42:52.911Z,99154.78
2019-01-18T09:45:19.518Z,99156.09
2019-01-18T09:47:46.108Z,99159.06
2019-01-18T09:50:13.127Z,99176.11
2019-01-18T09:52:39.734Z,99167.71
2019-01-18T09:55:06.336Z,99174.30
2019-01-18T09:57:33.257Z,99178.42
2019-01-18T09:59:59.868Z,99180.92
2019-01-18T10:02:26.687Z,99191.52
2019-01-18T10:04:53.770Z,99196.89
2019-01-18T10:07:20.993Z,99195.89
2019-01-18T10:09:48.047Z,99201.03
2019-01-18T10:12:14.748Z,99203.59
2019-01-18T10:14:41.351Z,99202.88
2019-01-18T10:17:08.425Z,99213.02
2019-01-18T10:19:35.459Z,99214.02
2019-01-18T10:22:02.529Z,99213.69
2019-01-18T10:24:29.095Z,99219.16
2019-01-18T10:26:56.201Z,99219.95
2019-01-18T10:29:28.142Z,99226.46
2019-01-18T10:31:56.067Z,99234.95
2019-01-18T10:34:20.601Z,99233.80
2019-01-18T10:36:47.662Z,99238.28
2019-01-18T10:39:15.357Z,99240.97
2019-01-18T10:41:43.131Z,99253.77
2019-01-18T10:44:09.762Z,99254.11
2019-01-18T10:46:37.283Z,99254.33
2019-01-18T10:49:03.919Z,99252.52
2019-01-18T10:51:30.973Z,99253.68
2019-01-18T10:53:57.671Z,99263.38
2019-01-18T10:56:24.738Z,99264.84
2019-01-18T10:58:51.863Z,99271.89
2019-01-18T11:01:20.038Z,99276.77
2019-01-18T11:03:47.250Z,99290.16
2019-01-18T11:06:13.895Z,99299.91
2019-01-18T11:08:41.044Z,99306.34
2019-01-18T11:11:08.263Z,99301.94
2019-01-18T11:13:35.404Z,99295.54
2019-01-18T11:16:02.497Z,99308.37
2019-01-18T11:18:29.102Z,99305.33
2019-01-18T11:20:55.706Z,99301.98
2019-01-18T11:23:22.807Z,99317.32
2019-01-18T11:25:49.377Z,99306.66
2019-01-18T11:28:16.020Z,99321.83
2019-01-18T11:30:43.129Z,99318.98
2019-01-18T11:33:10.167Z,99321.20
2019-01-18T11:35:37.235Z,99320.05
2019-01-18T11:38:03.903Z,99335.14
2019-01-18T11:40:30.592Z,99327.01
2019-01-18T11:42:57.645Z,99333.84
2019-01-18T11:45:24.292Z,99342.74
2019-01-18T11:47:51.352Z,99348.62
2019-01-18T11:50:17.953Z,99358.55
2019-01-18T11:52:44.612Z,99355.67
2019-01-18T11:55:11.661Z,99350.83
2019-01-18T11:57:38.238Z,99366.39
2019-01-18T12:00:05.238Z,99368.70
2019-01-18T12:02:32.308Z,99367.13
2019-01-18T12:04:59.042Z,99376.83
2019-01-18T12:07:25.706Z,99382.87
2019-01-18T12:09:52.799Z,99397.38
2019-01-18T12:12:19.441Z,99393.94
2019-01-18T12:14:46.086Z,99397.60
2019-01-18T12:17:13.702Z,99416.36
2019-01-18T12:19:40.476Z,99419.97
2019-01-18T12:22:07.210Z,99420.73
2019-01-18T12:24:34.306Z,99421.69
2019-01-18T12:27:00.902Z,99423.73
2019-01-18T12:29:27.551Z,99436.89
2019-01-18T12:31:54.165Z,99438.89
2019-01-18T12:34:20.743Z,99430.77
2019-01-18T12:36:47.863Z,99438.55
2019-01-18T12:39:14.686Z,99434.75
2019-01-18T12:41:41.435Z,99447.58
2019-01-18T12:44:08.502Z,99465.33
2019-01-18T12:46:35.583Z,99454.22
2019-01-18T12:49:02.157Z,99452.72
2019-01-18T12:51:29.275Z,99460.41
2019-01-18T12:53:56.005Z,99460.39
2019-01-18T12:56:22.652Z,99467.26
2019-01-18T12:58:49.665Z,99482.69
2019-01-18T13:01:16.843Z,99485.59
2019-01-18T13:03:44.556Z,99487.70
2019-01-18T13:06:12.089Z,99489.64
2019-01-18T13:08:38.820Z,99485.47
2019-01-18T13:11:05.856Z,99515.19
2019-01-18T13:13:32.491Z,99504.03
2019-01-18T13:15:59.159Z,99500.31
2019-01-18T13:18:25.811Z,99498.06
2019-01-18T13:20:52.479Z,99504.72
2019-01-18T13:23:19.750Z,99506.98
2019-01-18T13:25:46.447Z,99514.67
2019-01-18T13:28:13.133Z,99507.89
2019-01-18T13:30:39.834Z,99516.25
2019-01-18T13:33:06.892Z,99542.20
2019-01-18T13:35:33.689Z,99545.09
2019-01-18T13:38:00.372Z,99539.52
2019-01-18T13:40:28.125Z,99546.09
2019-01-18T13:42:54.852Z,99550.00
2019-01-18T13:45:24.443Z,99560.77
2019-01-18T13:47:51.048Z,99558.33
2019-01-18T13:50:18.142Z,99560.51
2019-01-18T13:52:44.864Z,99559.81
2019-01-18T13:55:11.965Z,99566.23
2019-01-18T13:57:39.087Z,99575.09
2019-01-18T14:00:05.747Z,99573.95
2019-01-18T14:02:32.781Z,99580.98
2019-01-18T14:04:59.913Z,99601.31
2019-01-18T14:07:26.544Z,99598.25
2019-01-18T14:09:53.699Z,99590.59
2019-01-18T14:12:20.310Z,99607.60
2019-01-18T14:14:47.006Z,99598.45
2019-01-18T14:17:14.168Z,99609.11
2019-01-18T14:19:40.875Z,99611.67
2019-01-18T14:22:08.485Z,99615.79
2019-01-18T14:24:35.585Z,99616.25
2019-01-18T14:27:03.641Z,99628.28
2019-01-18T14:29:30.762Z,99636.68
2019-01-18T14:31:57.554Z,99631.62
2019-01-18T14:34:26.638Z,99643.06
2019-01-18T14:36:53.332Z,99646.03
2019-01-18T14:39:20.545Z,99659.05
2019-01-18T14:41:47.262Z,99653.77
2019-01-18T14:44:14.316Z,99658.69
2019-01-18T14:46:41.057Z,99655.88
2019-01-18T14:49:08.133Z,99662.65
2019-01-18T14:51:34.816Z,99668.63
2019-01-18T14:54:02.062Z,99659.32
2019-01-18T14:56:29.165Z,99671.11
2019-01-18T14:58:56.216Z,99666.95
2019-01-18T15:01:23.336Z,99675.88
2019-01-18T15:03:54.082Z,99667.84
2019-01-18T15:06:18.386Z,99675.93
2019-01-18T15:08:45.505Z,99675.42
2019-01-18T15:11:12.584Z,99673.97
2019-01-18T15:13:39.236Z,99676.63
2019-01-18T15:16:05.973Z,99681.53
2019-01-18T15:18:32.679Z,99679.09
2019-01-18T15:20:59.756Z,99687.31
2019-01-18T15:23:26.902Z,99694.78
2019-01-18T15:25:53.616Z,99697.19
2019-01-18T15:28:20.245Z,99706.91
2019-01-18T15:30:47.371Z,99702.02
2019-01-18T15:33:13.984Z,99707.09
2019-01-18T15:35:40.566Z,99706.63
2019-01-18T15:38:08.367Z,99709.09
2019-01-18T15:40:35.550Z,99712.73
2019-01-18T15:43:02.666Z,99721.36
2019-01-18T15:45:29.449Z,99720.62
2019-01-18T15:47:56.133Z,99727.73
2019-01-18T15:50:22.844Z,99728.73
2019-01-18T15:52:50.038Z,99734.86
2019-01-18T15:55:16.703Z,99743.98
2019-01-18T15:57:43.370Z,99746.33
2019-01-18T16:00:10.391Z,99745.64
2019-01-18T16:02:37.029Z,99750.48
2019-01-18T16:05:04.100Z,99755.06
2019-01-18T16:07:31.124Z,99758.39
2019-01-18T16:09:58.248Z,99757.34
2019-01-18T16:12:25.291Z,99755.13
2019-01-18T16:14:52.245Z,99758.09
2019-01-18T16:17:19.436Z,99761.22
2019-01-18T16:19:47.203Z,99761.22
2019-01-18T16:22:15.088Z,99783.80
2019-01-18T16:24:41.720Z,99767.39
2019-01-18T16:27:08.577Z,99772.09
2019-01-18T16:29:41.666Z,99785.09
2019-01-18T16:32:08.291Z,99782.44
2019-01-18T16:34:35.364Z,99778.53
2019-01-18T16:37:02.471Z,99774.50
2019-01-18T16:39:29.772Z,99776.48
2019-01-18T16:41:56.385Z,99782.80
2019-01-18T16:44:23.538Z,99783.78
2019-01-18T16:46:50.593Z,99783.38
2019-01-18T16:49:17.259Z,99789.32
2019-01-18T16:51:44.225Z,99788.72
2019-01-18T16:54:10.905Z,99796.47
2019-01-18T16:56:38.004Z,99803.89
2019-01-18T16:59:05.169Z,99802.95
2019-01-18T17:01:31.880Z,99802.80
2019-01-18T17:03:58.564Z,99796.16
2019-01-18T17:06:25.292Z,99796.06
2019-01-18T17:08:52.428Z,99796.48
2019-01-18T17:11:19.115Z,99797.19
2019-01-18T17:13:46.382Z,99808.81
2019-01-18T17:16:13.025Z,99798.23
2019-01-18T17:18:39.718Z,99807.75
2019-01-18T17:21:06.826Z,99806.22
2019-01-18T17:23:33.904Z,99803.72
2019-01-18T17:26:00.926Z,99809.77
2019-01-18T17:28:27.744Z,99810.63
2019-01-18T17:30:54.820Z,99813.30
2019-01-18T17:33:21.865Z,99809.64
2019-01-18T17:35:48.606Z,99815.14
2019-01-18T17:38:15.294Z,99825.94
2019-01-18T17:40:42.402Z,99829.20
2019-01-18T17:43:09.177Z,99835.79
2019-01-18T17:45:36.654Z,99836.27
2019-01-18T17:48:03.676Z,99835.62
2019-01-18T17:50:30.366Z,99846.11
2019-01-18T17:52:57.061Z,99847.84
2019-01-18T17:55:24.949Z,99846.72
2019-01-18T17:57:51.663Z,99851.41
2019-01-18T18:00:18.784Z,99854.50
2019-01-18T18:02:45.960Z,99853.30
2019-01-18T18:05:12.645Z,99854.56
2019-01-18T18:07:39.915Z,99857.36
2019-01-18T18:10:06.595Z,99856.69
2019-01-18T18:12:33.695Z,99854.11
2019-01-18T18:15:00.455Z,99856.02
2019-01-18T18:17:27.179Z,99861.08
2019-01-18T18:19:54.683Z,99863.98
2019-01-18T18:22:21.806Z,99867.86
2019-01-18T18:24:48.835Z,99869.34
2019-01-18T18:27:15.604Z,99872.55
2019-01-18T18:29:42.349Z,99876.07
2019-01-18T18:32:09.008Z,99877.20
2019-01-18T18:34:36.153Z,99876.00
2019-01-18T18:37:02.884Z,99876.28
2019-01-18T18:39:31.027Z,99876.45
2019-01-18T18:41:57.684Z,99875.95
2019-01-18T18:44:24.348Z,99879.13
2019-01-18T18:46:51.112Z,99884.36
2019-01-18T18:49:20.174Z,99880.25
2019-01-18T18:51:50.426Z,99881.72
2019-01-18T18:54:18.147Z,99885.63
2019-01-18T18:56:45.080Z,99888.75
2019-01-18T18:59:11.754Z,99880.49
2019-01-18T19:01:38.472Z,99886.13
2019-01-18T19:04:05.166Z,99890.65
2019-01-18T19:06:31.903Z,99893.76
2019-01-18T19:08:59.035Z,99896.83
2019-01-18T19:11:25.764Z,99891.84
2019-01-18T19:13:52.428Z,99894.82
2019-01-18T19:16:19.505Z,99898.85
2019-01-18T19:18:46.578Z,99898.94
2019-01-18T19:21:14.407Z,99897.32
2019-01-18T19:23:41.591Z,99899.61
2019-01-18T19:26:08.294Z,99905.53
2019-01-18T19:28:35.383Z,99902.44
2019-01-18T19:31:02.506Z,99909.84
2019-01-18T19:33:29.555Z,99907.14
2019-01-18T19:35:56.256Z,99906.09
2019-01-18T19:38:23.360Z,99907.36
2019-01-18T19:40:50.915Z,99913.98
2019-01-18T19:43:17.974Z,99916.77
2019-01-18T19:45:44.703Z,99915.69
2019-01-18T19:48:11.927Z,99916.94
2019-01-18T19:50:39.048Z,99916.34
2019-01-18T19:53:05.817Z,99921.84
2019-01-18T19:55:32.458Z,99926.08
2019-01-18T19:57:59.653Z,99927.39
2019-01-18T20:00:26.801Z,99929.41
2019-01-18T20:02:53.559Z,99932.06
2019-01-18T20:05:21.888Z,99929.75
2019-01-18T20:07:49.342Z,99937.19
2019-01-18T20:10:16.526Z,99942.98
2019-01-18T20:12:43.249Z,99945.63
2019-01-18T20:15:10.075Z,99949.05
2019-01-18T20:17:36.774Z,99948.08
2019-01-18T20:20:03.931Z,99955.95
2019-01-18T20:22:31.230Z,99958.26
2019-01-18T20:24:57.923Z,99951.35
2019-01-18T20:27:24.646Z,99960.77
2019-01-18T20:29:51.336Z,99957.63
2019-01-18T20:32:18.568Z,99959.12
2019-01-18T20:34:45.831Z,99965.97
2019-01-18T20:37:12.908Z,99970.00
2019-01-18T20:39:40.038Z,99977.36
2019-01-18T20:42:07.223Z,99979.49
2019-01-18T20:44:33.958Z,99983.41
2019-01-18T20:47:00.611Z,99981.94
2019-01-18T20:49:27.413Z,99979.80
2019-01-18T20:51:54.067Z,99982.50
2019-01-18T20:54:21.820Z,99986.79
2019-01-18T20:56:49.635Z,99989.75
2019-01-18T20:59:16.945Z,99989.12
2019-01-18T21:01:44.498Z,99994.23
2019-01-18T21:04:11.240Z,99997.75
2019-01-18T21:06:37.979Z,100001.16
2019-01-18T21:09:05.411Z,100001.78
2019-01-18T21:11:32.787Z,99999.09
2019-01-18T21:14:01.822Z,100006.55
2019-01-18T21:16:28.626Z,100003.84
2019-01-18T21:18:55.853Z,100002.41
2019-01-18T21:21:23.552Z,100004.67
2019-01-18T21:23:51.282Z,100011.50
2019-01-18T21:26:18.475Z,100012.08
2019-01-18T21:28:45.140Z,100012.41
2019-01-18T21:31:12.146Z,100011.39
2019-01-18T21:33:39.295Z,100009.08
2019-01-18T21:36:06.627Z,100007.77
2019-01-18T21:38:33.579Z,100009.17
2019-01-18T21:41:01.048Z,100011.11
2019-01-18T21:43:28.326Z,100009.89
2019-01-18T21:45:55.061Z,100010.84
2019-01-18T21:48:22.135Z,100013.73
2019-01-18T21:50:51.158Z,100012.88
2019-01-18T21:53:18.625Z,100010.87
2019-01-18T21:55:45.846Z,100007.73
2019-01-18T21:58:14.427Z,100007.67
2019-01-18T22:00:41.635Z,100005.28
2019-01-18T22:03:09.011Z,100003.52
2019-01-18T22:05:35.778Z,100000.64
2019-01-18T22:08:02.514Z,99999.65
2019-01-18T22:10:34.514Z,99999.20
2019-01-18T22:13:02.601Z,100005.58
2019-01-18T22:15:29.969Z,100006.44
2019-01-18T22:17:56.755Z,100004.67
2019-01-18T22:20:25.172Z,100002.17
2019-01-18T22:22:52.560Z,100003.59
2019-01-18T22:25:19.398Z,100009.19
2019-01-18T22:27:46.447Z,100007.49
2019-01-18T22:30:13.309Z,100005.28
2019-01-18T22:32:40.403Z,100012.28
2019-01-18T22:35:07.511Z,100008.97
2019-01-18T22:37:34.381Z,100014.64
2019-01-18T22:40:01.423Z,100012.91
2019-01-18T22:42:28.183Z,100011.02
2019-01-18T22:44:55.300Z,100016.39
2019-01-18T22:47:23.102Z,100017.45
2019-01-18T22:49:50.865Z,100014.40
2019-01-18T22:52:17.876Z,100016.28
2019-01-18T22:54:45.718Z,100013.20
2019-01-18T22:57:12.835Z,100013.12
2019-01-18T22:59:39.861Z,100013.16
2019-01-18T23:02:06.990Z,100014.27
2019-01-18T23:04:33.790Z,100013.56
2019-01-18T23:07:00.440Z,100011.38
2019-01-18T23:09:28.152Z,100010.14
2019-01-18T23:11:54.894Z,100011.78
2019-01-18T23:14:21.638Z,100006.37
2019-01-18T23:16:48.757Z,100003.13
2019-01-18T23:19:15.909Z,100003.91
2019-01-18T23:21:42.602Z,100003.38
2019-01-18T23:24:09.301Z,100003.34
2019-01-18T23:26:36.063Z,99996.58
2019-01-18T23:29:02.846Z,99996.55
2019-01-18T23:31:29.938Z,99995.91
2019-01-18T23:33:56.609Z,99994.96
2019-01-18T23:36:23.709Z,99998.63
2019-01-18T23:38:50.407Z,99994.55
2019-01-18T23:41:17.159Z,99995.09
2019-01-18T23:43:44.210Z,99996.17
2019-01-18T23:46:11.287Z,99993.10
2019-01-18T23:48:38.414Z,99989.61
2019-01-18T23:51:05.475Z,99991.28
2019-01-18T23:53:32.637Z,99987.80
2019-01-18T23:55:59.762Z,99989.30
2019-01-18T23:58:27.486Z,99990.87
